Time;durP1;ratioP1;P1;durP2;ratioP2;P2;SDS_P1;SDS_P2;PMS_P1;PMS_P2;Temp;Humidity;BMP_temperature;BMP_pressure;BME280_temperature;BME280_humidity;BME280_pressure;Samples;Min_cycle;Max_cycle;Signal;HPM_P1;HPM_P2
2021/11/03 00:00:24;;;;;;;8.93;8.33;;;4.50;99.90;;;;;;5074384;28;20208;-66
2021/11/03 00:02:50;;;;;;;8.90;8.27;;;4.50;99.90;;;;;;5081536;28;20170;-66
2021/11/03 00:05:16;;;;;;;9.00;8.30;;;4.50;99.90;;;;;;5073787;28;20184;-65
2021/11/03 00:07:43;;;;;;;9.23;8.57;;;4.40;99.90;;;;;;5075436;28;20191;-66
2021/11/03 00:10:12;;;;;;;13.67;8.30;;;4.40;99.90;;;;;;5080392;28;20609;-65
2021/11/03 00:12:38;;;;;;;9.10;8.50;;;4.30;99.90;;;;;;5070659;28;20292;-65
2021/11/03 00:15:06;;;;;;;8.97;8.27;;;4.30;99.90;;;;;;5072534;28;20207;-64
2021/11/03 00:17:31;;;;;;;8.50;7.90;;;4.30;99.90;;;;;;5072063;28;20205;-65
2021/11/03 00:19:57;;;;;;;10.17;8.50;;;4.30;99.90;;;;;;5075603;28;20241;-65
2021/11/03 00:22:23;;;;;;;8.93;8.20;;;4.30;99.90;;;;;;5092293;28;20226;-67
2021/11/03 00:24:49;;;;;;;8.87;8.27;;;4.30;99.90;;;;;;5089611;28;20181;-66
2021/11/03 00:27:14;;;;;;;9.20;8.57;;;4.30;99.90;;;;;;5071895;28;20178;-66
2021/11/03 00:29:40;;;;;;;9.03;8.40;;;4.30;99.90;;;;;;5071739;28;20197;-66
2021/11/03 00:32:08;;;;;;;8.70;8.17;;;4.30;99.90;;;;;;5092062;28;20208;-66
2021/11/03 00:34:34;;;;;;;9.03;8.33;;;4.30;99.90;;;;;;5092183;28;20176;-66
2021/11/03 00:36:59;;;;;;;9.40;8.60;;;4.30;99.90;;;;;;5088962;28;20181;-66
2021/11/03 00:39:26;;;;;;;8.53;7.97;;;4.20;99.90;;;;;;5091725;28;20288;-66
2021/11/03 00:41:54;;;;;;;8.57;7.97;;;4.20;99.90;;;;;;5073587;28;20178;-66
2021/11/03 00:44:22;;;;;;;8.97;8.37;;;4.20;99.90;;;;;;5072473;28;20178;-65
2021/11/03 00:46:48;;;;;;;8.67;8.07;;;4.10;99.90;;;;;;5092031;28;20677;-66
2021/11/03 00:49:15;;;;;;;9.33;8.60;;;4.10;99.90;;;;;;5090448;28;20213;-65
2021/11/03 00:51:41;;;;;;;9.90;8.90;;;4.10;99.90;;;;;;5071271;28;20202;-65
2021/11/03 00:54:06;;;;;;;8.90;8.13;;;4.10;99.90;;;;;;5071913;28;20234;-66
2021/11/03 00:56:32;;;;;;;9.13;8.37;;;4.10;99.90;;;;;;5090759;28;20174;-66
2021/11/03 00:58:58;;;;;;;9.03;8.33;;;4.10;99.90;;;;;;5079023;28;20241;-65
2021/11/03 01:01:23;;;;;;;8.23;7.63;;;4.20;99.90;;;;;;5071503;28;20170;-65
2021/11/03 01:03:49;;;;;;;9.30;8.53;;;4.20;99.90;;;;;;5081437;28;20264;-65
2021/11/03 01:06:15;;;;;;;9.17;8.47;;;4.30;99.90;;;;;;5091757;28;20219;-65
2021/11/03 01:08:41;;;;;;;9.47;8.67;;;4.30;99.90;;;;;;5082572;28;20243;-65
2021/11/03 01:11:06;;;;;;;9.60;8.90;;;4.30;99.90;;;;;;5071219;28;20201;-66
2021/11/03 01:13:33;;;;;;;9.33;8.63;;;4.40;99.90;;;;;;5078132;28;20173;-66
2021/11/03 01:15:59;;;;;;;9.60;8.80;;;4.40;99.90;;;;;;5091652;28;20184;-66
2021/11/03 01:18:30;;;;;;;9.93;9.23;;;4.40;99.90;;;;;;5084741;28;20170;-66
2021/11/03 01:20:56;;;;;;;10.43;9.70;;;4.40;99.90;;;;;;5069789;28;20188;-66
2021/11/03 01:23:24;;;;;;;9.73;8.97;;;4.40;99.90;;;;;;5075640;28;20180;-67
2021/11/03 01:25:50;;;;;;;9.83;8.93;;;4.40;99.90;;;;;;5091323;28;20193;-66
2021/11/03 01:28:17;;;;;;;9.67;8.97;;;4.40;99.90;;;;;;5088121;28;20174;-66
2021/11/03 01:30:45;;;;;;;9.97;9.27;;;4.40;99.90;;;;;;5070854;28;20678;-66
2021/11/03 01:33:11;;;;;;;10.77;9.87;;;4.50;99.90;;;;;;5090323;28;20169;-66
2021/11/03 01:35:37;;;;;;;9.73;9.07;;;4.40;99.90;;;;;;5091229;28;20544;-65
2021/11/03 01:38:03;;;;;;;10.77;9.73;;;4.40;99.90;;;;;;5073450;28;20174;-66
2021/11/03 01:40:33;;;;;;;9.83;9.13;;;4.40;99.90;;;;;;5070900;28;20526;-67
2021/11/03 01:42:59;;;;;;;9.67;8.97;;;4.40;99.90;;;;;;5087677;28;20209;-67
2021/11/03 01:45:27;;;;;;;9.80;9.03;;;4.40;99.90;;;;;;5090078;28;20191;-66
2021/11/03 01:48:08;;;;;;;9.90;9.13;;;4.40;99.90;;;;;;5075709;28;20177;-66
2021/11/03 01:50:49;;;;;;;9.90;9.20;;;4.30;99.90;;;;;;5070770;28;20237;-66
2021/11/03 01:53:23;;;;;;;9.60;8.80;;;4.30;99.90;;;;;;5088906;28;20188;-66
2021/11/03 01:55:59;;;;;;;10.27;9.47;;;4.20;99.90;;;;;;5095564;28;20193;-65
2021/11/03 01:58:30;;;;;;;9.60;8.90;;;4.20;99.90;;;;;;5076340;28;20171;-67
2021/11/03 02:00:58;;;;;;;10.20;9.30;;;4.30;99.90;;;;;;5075536;28;20175;-65
2021/11/03 02:03:27;;;;;;;11.20;10.10;;;4.20;99.90;;;;;;5074808;28;20174;-67
2021/11/03 02:06:18;;;;;;;10.70;9.80;;;4.30;99.90;;;;;;5078009;28;20201;-65
2021/11/03 02:08:46;;;;;;;9.57;8.93;;;4.30;99.90;;;;;;5094770;28;20510;-66
2021/11/03 02:11:14;;;;;;;10.43;9.60;;;4.30;99.90;;;;;;5088492;28;20596;-65
2021/11/03 02:13:42;;;;;;;9.70;8.90;;;4.30;99.90;;;;;;5074365;28;20205;-66
2021/11/03 02:16:09;;;;;;;9.23;8.70;;;4.30;99.90;;;;;;5079052;28;20197;-67
2021/11/03 02:18:36;;;;;;;10.63;9.67;;;4.30;99.90;;;;;;5094664;28;20162;-66
2021/11/03 02:21:04;;;;;;;9.63;8.83;;;4.30;99.90;;;;;;5089594;28;20178;-65
2021/11/03 02:23:38;;;;;;;9.53;8.73;;;4.40;99.90;;;;;;5074476;28;20174;-65
2021/11/03 02:26:17;;;;;;;11.50;10.70;;;4.40;99.90;;;;;;5092955;28;20496;-65
2021/11/03 02:28:46;;;;;;;10.03;9.23;;;4.40;99.90;;;;;;5094276;28;20643;-66
2021/11/03 02:31:41;;;;;;;9.63;8.90;;;4.40;99.90;;;;;;5054046;28;20228;-67
2021/11/03 02:34:10;;;;;;;10.23;9.53;;;4.50;99.90;;;;;;5059545;28;20213;-66
2021/11/03 02:36:57;;;;;;;9.13;8.53;;;4.40;99.90;;;;;;5094163;28;20209;-66
2021/11/03 02:39:33;;;;;;;10.10;9.07;;;4.40;99.90;;;;;;5089551;28;20194;-66
2021/11/03 02:42:00;;;;;;;10.10;9.30;;;4.40;99.90;;;;;;5074029;28;20178;-66
2021/11/03 02:44:28;;;;;;;10.27;9.37;;;4.40;99.90;;;;;;5077746;28;20193;-65
2021/11/03 02:46:53;;;;;;;9.77;9.07;;;4.40;99.90;;;;;;5094041;28;20175;-66
2021/11/03 02:49:19;;;;;;;11.00;10.00;;;4.30;99.90;;;;;;5090971;28;20220;-66
2021/11/03 02:51:45;;;;;;;10.40;9.80;;;4.30;99.90;;;;;;5073563;28;20197;-65
2021/11/03 02:54:18;;;;;;;11.40;10.50;;;4.30;99.90;;;;;;5074426;28;20211;-66
2021/11/03 02:56:48;;;;;;;9.90;9.20;;;4.30;99.90;;;;;;5093835;28;20215;-66
2021/11/03 02:59:15;;;;;;;11.13;10.40;;;4.30;99.90;;;;;;5093133;28;20186;-65
2021/11/03 03:01:44;;;;;;;11.50;10.50;;;4.30;99.90;;;;;;5072175;28;20233;-66
2021/11/03 03:04:20;;;;;;;10.87;10.03;;;4.20;99.90;;;;;;5073677;28;20177;-66
2021/11/03 03:06:46;;;;;;;10.63;9.67;;;4.30;99.90;;;;;;5053481;28;20316;-66
2021/11/03 03:09:13;;;;;;;10.20;9.33;;;4.30;99.90;;;;;;5053177;28;20198;-66
2021/11/03 03:11:43;;;;;;;10.37;9.60;;;4.30;99.90;;;;;;5073210;28;20320;-67
2021/11/03 03:14:10;;;;;;;9.80;9.20;;;4.40;99.90;;;;;;5073536;28;20595;-66
2021/11/03 03:16:36;;;;;;;10.20;9.40;;;4.50;99.90;;;;;;5074462;28;20178;-66
2021/11/03 03:19:03;;;;;;;10.97;10.07;;;4.50;99.90;;;;;;5073054;28;20198;-66
2021/11/03 03:21:29;;;;;;;10.80;9.97;;;4.50;99.90;;;;;;5090223;28;20242;-66
2021/11/03 03:23:55;;;;;;;11.13;10.23;;;4.50;99.90;;;;;;5093136;28;20253;-66
2021/11/03 03:26:22;;;;;;;11.97;10.97;;;4.60;99.90;;;;;;5077581;28;20185;-66
2021/11/03 03:28:49;;;;;;;11.97;10.97;;;4.60;99.90;;;;;;5072932;28;20177;-66
2021/11/03 03:31:16;;;;;;;14.13;10.10;;;4.60;99.90;;;;;;5078345;28;20200;-65
2021/11/03 03:33:46;;;;;;;10.97;10.07;;;4.70;99.90;;;;;;5072561;28;20190;-66
2021/11/03 03:36:12;;;;;;;10.17;9.17;;;4.70;99.90;;;;;;5073033;28;20643;-67
2021/11/03 03:38:38;;;;;;;10.13;9.43;;;4.80;99.90;;;;;;5072117;28;20170;-66
2021/11/03 03:41:03;;;;;;;10.03;9.20;;;4.80;99.90;;;;;;5072781;28;20644;-65
2021/11/03 03:43:29;;;;;;;10.10;9.27;;;4.80;99.90;;;;;;5072896;28;20455;-65
2021/11/03 03:45:55;;;;;;;10.30;9.47;;;4.90;99.90;;;;;;5082919;28;20173;-65
2021/11/03 03:48:20;;;;;;;10.73;9.83;;;4.90;99.90;;;;;;5092933;28;20173;-67
2021/11/03 03:53:14;;;;;;;10.07;9.13;;;4.90;99.90;;;;;;5071823;28;20244;-69
2021/11/03 03:55:39;;;;;;;11.00;9.90;;;4.90;99.90;;;;;;5080300;28;20264;-70
2021/11/03 03:58:06;;;;;;;10.70;9.70;;;4.90;99.90;;;;;;5094864;28;20222;-70
2021/11/03 04:00:32;;;;;;;9.83;9.07;;;5.00;99.90;;;;;;5089387;28;20299;-71
2021/11/03 04:02:58;;;;;;;10.23;9.40;;;4.90;99.90;;;;;;5080105;28;20268;-70
2021/11/03 04:05:24;;;;;;;10.10;9.30;;;4.90;99.90;;;;;;5085089;28;20174;-71
2021/11/03 04:07:51;;;;;;;10.13;9.30;;;4.90;99.90;;;;;;5094498;28;20173;-71
2021/11/03 04:10:17;;;;;;;10.90;9.90;;;5.00;99.90;;;;;;5084451;28;20551;-69
2021/11/03 04:12:43;;;;;;;10.83;9.93;;;5.00;99.90;;;;;;5074219;28;20212;-71
2021/11/03 04:15:11;;;;;;;9.80;9.10;;;5.10;99.90;;;;;;5077847;28;20170;-69
2021/11/03 04:17:36;;;;;;;11.30;10.30;;;5.00;99.90;;;;;;5071826;28;20181;-66
2021/11/03 04:20:06;;;;;;;11.20;10.10;;;5.10;99.90;;;;;;5078567;28;20193;-70
2021/11/03 04:22:32;;;;;;;11.63;10.40;;;5.10;99.90;;;;;;5094010;28;20184;-72
2021/11/03 04:24:58;;;;;;;11.13;10.03;;;5.10;99.90;;;;;;5088530;28;20187;-69
2021/11/03 04:27:24;;;;;;;11.20;10.23;;;5.10;99.90;;;;;;5072920;28;20228;-71
2021/11/03 04:29:50;;;;;;;11.40;10.20;;;5.20;99.90;;;;;;5076426;28;20543;-69
2021/11/03 04:32:16;;;;;;;11.37;10.37;;;5.20;99.90;;;;;;5092705;28;20193;-70
2021/11/03 04:34:42;;;;;;;12.20;10.93;;;5.20;99.90;;;;;;5092596;28;20194;-73
2021/11/03 04:37:07;;;;;;;11.70;10.57;;;5.20;99.90;;;;;;5072336;28;20666;-72
2021/11/03 04:39:33;;;;;;;13.07;11.17;;;5.20;99.90;;;;;;5073063;28;20190;-69
2021/11/03 04:41:59;;;;;;;11.47;10.37;;;5.20;99.90;;;;;;5073852;28;20212;-70
2021/11/03 04:44:25;;;;;;;12.07;10.93;;;5.20;99.90;;;;;;5073459;28;20170;-69
2021/11/03 04:46:51;;;;;;;11.90;10.80;;;5.20;99.90;;;;;;5091029;28;20205;-70
2021/11/03 04:49:16;;;;;;;11.63;10.57;;;5.20;99.90;;;;;;5091609;28;20605;-67
2021/11/03 04:51:42;;;;;;;11.17;10.13;;;5.20;99.90;;;;;;5093053;28;20712;-70
2021/11/03 04:54:08;;;;;;;10.23;9.17;;;5.20;99.90;;;;;;5088782;28;20186;-69
2021/11/03 04:56:36;;;;;;;10.47;9.50;;;5.10;99.90;;;;;;5073190;28;20181;-70
2021/11/03 04:59:02;;;;;;;11.17;10.27;;;5.10;99.90;;;;;;5072613;28;20186;-66
2021/11/03 05:01:28;;;;;;;10.93;10.10;;;5.10;99.90;;;;;;5091812;28;20195;-66
2021/11/03 05:03:55;;;;;;;11.10;10.03;;;5.10;99.90;;;;;;5091220;28;20173;-65
2021/11/03 05:06:23;;;;;;;10.90;9.87;;;5.10;99.90;;;;;;5071109;28;20544;-65
2021/11/03 05:08:49;;;;;;;11.17;10.13;;;5.20;99.90;;;;;;5071518;28;20177;-66
2021/11/03 05:11:16;;;;;;;11.13;10.13;;;5.20;99.90;;;;;;5090200;28;20242;-66
2021/11/03 05:13:41;;;;;;;11.53;10.63;;;5.20;99.90;;;;;;5091540;28;20176;-66
2021/11/03 05:16:10;;;;;;;10.33;9.57;;;5.20;99.90;;;;;;5073706;28;20257;-66
2021/11/03 05:18:36;;;;;;;14.03;9.87;;;5.20;99.90;;;;;;5079644;28;20170;-66
2021/11/03 05:21:01;;;;;;;10.40;9.40;;;5.20;99.90;;;;;;5084786;28;20582;-66
2021/11/03 05:23:27;;;;;;;12.07;10.97;;;5.20;99.90;;;;;;5071586;28;20170;-66
2021/11/03 05:25:53;;;;;;;10.00;9.00;;;5.20;99.90;;;;;;5075498;28;20173;-65
2021/11/03 05:28:19;;;;;;;12.67;10.30;;;5.20;99.90;;;;;;5091765;28;20162;-65
2021/11/03 05:30:45;;;;;;;10.50;9.50;;;5.20;99.90;;;;;;5092016;28;20229;-66
2021/11/03 05:33:11;;;;;;;10.97;9.87;;;5.20;99.90;;;;;;5095773;28;20200;-65
2021/11/03 05:35:37;;;;;;;11.53;10.43;;;5.20;99.90;;;;;;5086481;28;20573;-66
2021/11/03 05:38:02;;;;;;;11.97;10.87;;;5.30;99.90;;;;;;5075365;28;20170;-65
2021/11/03 05:40:29;;;;;;;11.03;10.00;;;5.20;99.90;;;;;;5076471;28;20259;-65
2021/11/03 05:42:55;;;;;;;9.93;9.07;;;5.20;99.90;;;;;;5076420;28;20197;-66
2021/11/03 05:45:22;;;;;;;11.43;10.33;;;5.20;99.90;;;;;;5082213;28;20212;-66
2021/11/03 05:47:48;;;;;;;10.77;9.77;;;5.20;99.90;;;;;;5094071;28;20169;-65
2021/11/03 05:50:19;;;;;;;11.00;9.83;;;5.20;99.90;;;;;;5083833;28;20197;-65
2021/11/03 05:52:44;;;;;;;11.60;10.40;;;5.20;99.90;;;;;;5074837;28;20214;-66
2021/11/03 05:55:11;;;;;;;13.10;10.10;;;5.20;99.90;;;;;;5084914;28;20526;-66
2021/11/03 05:57:37;;;;;;;11.90;9.97;;;5.30;99.90;;;;;;5095191;28;20166;-66
2021/11/03 06:00:26;;;;;;;12.03;10.90;;;5.20;99.90;;;;;;5080958;28;20246;-66
2021/11/03 06:02:52;;;;;;;11.87;10.80;;;5.30;99.90;;;;;;5078811;28;20173;-66
2021/11/03 06:05:18;;;;;;;12.50;11.20;;;5.20;99.90;;;;;;5093499;28;20188;-65
2021/11/03 06:07:59;;;;;;;12.10;10.87;;;5.30;99.90;;;;;;5095058;28;20174;-65
2021/11/03 06:10:30;;;;;;;11.20;10.13;;;5.30;99.90;;;;;;5087170;28;20216;-66
2021/11/03 06:12:56;;;;;;;11.83;10.80;;;5.30;99.90;;;;;;5073409;28;20288;-65
2021/11/03 06:15:27;;;;;;;11.80;10.60;;;5.30;99.90;;;;;;5080751;28;20197;-66
2021/11/03 06:17:54;;;;;;;11.67;10.57;;;5.40;99.90;;;;;;5094879;28;20161;-66
2021/11/03 06:20:21;;;;;;;11.83;10.43;;;5.40;99.90;;;;;;5089046;28;20190;-66
2021/11/03 06:22:47;;;;;;;12.80;11.47;;;5.40;99.90;;;;;;5075782;28;20167;-66
2021/11/03 06:25:14;;;;;;;12.17;11.00;;;5.40;99.90;;;;;;5074418;28;20584;-66
2021/11/03 06:27:41;;;;;;;11.73;10.57;;;5.50;99.90;;;;;;5076831;28;20186;-66
2021/11/03 06:30:08;;;;;;;12.63;10.87;;;5.40;99.90;;;;;;5092962;28;20601;-66
2021/11/03 06:32:35;;;;;;;12.03;10.83;;;5.40;99.90;;;;;;5093312;28;20193;-65
2021/11/03 06:35:02;;;;;;;11.93;10.83;;;5.50;99.90;;;;;;5074256;28;20166;-66
2021/11/03 06:37:29;;;;;;;12.27;10.43;;;5.50;99.90;;;;;;5074415;28;20754;-66
2021/11/03 06:39:54;;;;;;;15.57;11.23;;;5.50;99.90;;;;;;5086222;28;20190;-65
2021/11/03 06:42:20;;;;;;;14.43;10.53;;;5.50;99.90;;;;;;5074284;28;20172;-66
2021/11/03 06:44:46;;;;;;;10.73;9.77;;;5.50;99.90;;;;;;5091976;28;20205;-65
2021/11/03 06:47:12;;;;;;;12.17;10.90;;;5.50;99.90;;;;;;5093265;28;20177;-65
2021/11/03 06:49:38;;;;;;;12.47;9.80;;;5.50;99.90;;;;;;5077529;28;20208;-65
2021/11/03 06:52:04;;;;;;;12.37;11.17;;;5.50;99.90;;;;;;5071950;28;20639;-66
2021/11/03 06:54:30;;;;;;;11.97;10.70;;;5.50;99.90;;;;;;5087003;28;20184;-66
2021/11/03 06:56:55;;;;;;;10.93;9.93;;;5.50;99.90;;;;;;5094064;28;20598;-66
2021/11/03 06:59:21;;;;;;;17.03;11.13;;;5.60;99.90;;;;;;5081282;28;20551;-64
2021/11/03 07:01:47;;;;;;;10.90;9.83;;;5.60;99.90;;;;;;5073503;28;20577;-66
2021/11/03 07:04:14;;;;;;;15.27;10.50;;;5.60;99.90;;;;;;5084130;28;20223;-66
2021/11/03 07:06:41;;;;;;;12.03;10.60;;;5.50;99.90;;;;;;5092580;28;20169;-65
2021/11/03 07:09:07;;;;;;;13.47;11.10;;;5.60;99.90;;;;;;5078056;28;20178;-66
2021/11/03 07:11:33;;;;;;;12.73;10.83;;;5.60;99.90;;;;;;5073408;28;20205;-65
2021/11/03 07:13:59;;;;;;;12.70;11.40;;;5.70;99.90;;;;;;5074611;28;20204;-65
2021/11/03 07:16:25;;;;;;;12.30;11.10;;;5.70;99.90;;;;;;5073424;28;20217;-65
2021/11/03 07:18:51;;;;;;;13.73;11.23;;;5.80;99.90;;;;;;5088213;28;20170;-66
2021/11/03 07:21:17;;;;;;;14.13;11.10;;;5.80;99.90;;;;;;5093328;28;20197;-66
2021/11/03 07:23:43;;;;;;;16.47;10.90;;;5.80;99.90;;;;;;5079887;28;20651;-66
2021/11/03 07:26:09;;;;;;;12.13;10.90;;;5.80;99.90;;;;;;5083707;28;20219;-65
2021/11/03 07:28:36;;;;;;;19.43;12.17;;;5.90;99.90;;;;;;5093690;28;20181;-65
2021/11/03 07:31:03;;;;;;;14.57;13.07;;;5.90;99.90;;;;;;5087688;28;20200;-65
2021/11/03 07:33:29;;;;;;;13.13;11.93;;;6.00;99.90;;;;;;5080607;28;20634;-65
2021/11/03 07:35:54;;;;;;;15.60;12.30;;;5.90;99.90;;;;;;5072987;28;20174;-66
2021/11/03 07:38:20;;;;;;;13.03;11.67;;;6.00;99.90;;;;;;5073084;28;20174;-65
2021/11/03 07:40:51;;;;;;;14.07;12.60;;;6.00;99.90;;;;;;5081888;28;20197;-66
2021/11/03 07:43:19;;;;;;;13.00;11.50;;;6.00;99.90;;;;;;5093361;28;20256;-66
2021/11/03 07:45:47;;;;;;;12.87;11.47;;;6.10;99.90;;;;;;5084380;28;20174;-66
2021/11/03 07:48:13;;;;;;;13.53;12.20;;;6.10;99.90;;;;;;5073001;28;20265;-65
2021/11/03 07:50:43;;;;;;;12.80;11.60;;;6.20;99.90;;;;;;5079352;28;20759;-66
2021/11/03 07:53:11;;;;;;;16.03;12.13;;;6.30;99.90;;;;;;5092101;28;20285;-65
2021/11/03 07:55:40;;;;;;;14.23;12.20;;;6.40;99.90;;;;;;5085639;28;20182;-66
2021/11/03 07:58:06;;;;;;;13.80;12.10;;;6.50;99.90;;;;;;5074326;28;20166;-66
2021/11/03 08:00:34;;;;;;;15.17;13.60;;;6.60;99.90;;;;;;5091377;28;20284;-66
2021/11/03 08:03:00;;;;;;;15.90;11.00;;;6.60;99.90;;;;;;5080182;28;20627;-65
2021/11/03 08:05:29;;;;;;;12.47;11.10;;;6.60;99.90;;;;;;5072438;28;20177;-66
2021/11/03 08:08:01;;;;;;;14.07;11.70;;;6.70;99.90;;;;;;5083270;28;20238;-65
2021/11/03 08:10:28;;;;;;;13.33;11.87;;;6.80;99.90;;;;;;5092367;28;21030;-66
2021/11/03 08:12:55;;;;;;;12.37;11.27;;;6.80;99.90;;;;;;5081967;28;20292;-66
2021/11/03 08:15:22;;;;;;;13.50;12.07;;;6.90;99.90;;;;;;5071573;28;20167;-65
2021/11/03 08:17:48;;;;;;;13.67;11.70;;;6.90;99.90;;;;;;5080737;28;20612;-65
2021/11/03 08:20:21;;;;;;;13.43;11.97;;;7.00;99.90;;;;;;5092265;28;20193;-66
2021/11/03 08:22:47;;;;;;;14.07;12.73;;;7.00;99.90;;;;;;5083879;28;20186;-65
2021/11/03 08:25:13;;;;;;;14.17;11.57;;;7.00;99.90;;;;;;5072229;28;20247;-66
2021/11/03 08:27:40;;;;;;;15.07;11.80;;;6.90;99.90;;;;;;5079345;28;20193;-66
2021/11/03 08:30:08;;;;;;;12.87;11.57;;;6.90;99.90;;;;;;5089768;28;20206;-66
2021/11/03 08:32:50;;;;;;;16.50;12.37;;;6.90;99.90;;;;;;5070704;28;20213;-65
2021/11/03 08:35:17;;;;;;;13.53;12.10;;;6.90;99.90;;;;;;5074878;28;20755;-66
2021/11/03 08:37:43;;;;;;;12.80;11.50;;;7.00;99.90;;;;;;5090792;28;20177;-66
2021/11/03 08:40:15;;;;;;;13.83;11.97;;;7.00;99.90;;;;;;5089942;28;20236;-65
2021/11/03 08:42:41;;;;;;;13.47;11.47;;;7.00;99.90;;;;;;5071923;28;20178;-65
2021/11/03 08:45:10;;;;;;;15.10;12.20;;;7.10;99.90;;;;;;5072394;28;20235;-66
2021/11/03 08:47:37;;;;;;;12.30;10.23;;;7.10;99.90;;;;;;5090685;28;20561;-65
2021/11/03 08:50:05;;;;;;;14.07;11.93;;;7.10;99.90;;;;;;5091494;28;20689;-65
2021/11/03 08:52:31;;;;;;;12.93;10.97;;;7.20;99.90;;;;;;5090161;28;20209;-66
2021/11/03 08:54:57;;;;;;;13.27;12.10;;;7.20;99.90;;;;;;5090620;28;20577;-66
2021/11/03 08:57:23;;;;;;;20.27;15.93;;;7.20;99.90;;;;;;5073104;28;20188;-67
2021/11/03 08:59:50;;;;;;;24.27;17.80;;;7.20;99.90;;;;;;5085249;28;20189;-64
2021/11/03 09:02:15;;;;;;;28.73;21.27;;;7.20;99.90;;;;;;5091856;28;20191;-66
2021/11/03 09:04:41;;;;;;;18.53;14.07;;;7.20;99.90;;;;;;5089986;28;20264;-66
2021/11/03 09:07:11;;;;;;;13.40;11.90;;;7.30;99.90;;;;;;5090578;28;20173;-66
2021/11/03 09:09:38;;;;;;;13.60;11.93;;;7.50;99.90;;;;;;5079893;28;20247;-66
2021/11/03 09:12:06;;;;;;;16.23;14.13;;;7.60;99.90;;;;;;5070809;28;20209;-66
2021/11/03 09:14:32;;;;;;;12.37;10.87;;;7.80;99.90;;;;;;5080165;28;20182;-67
2021/11/03 09:16:57;;;;;;;12.97;11.60;;;7.80;99.90;;;;;;5088894;28;20637;-65
2021/11/03 09:19:23;;;;;;;14.03;12.10;;;7.80;99.90;;;;;;5091321;28;20189;-65
2021/11/03 09:21:49;;;;;;;13.40;11.73;;;7.80;99.90;;;;;;5087009;28;20200;-66
2021/11/03 09:24:14;;;;;;;14.10;11.50;;;7.80;99.90;;;;;;5071380;28;20211;-66
2021/11/03 09:26:41;;;;;;;13.70;12.10;;;7.80;99.90;;;;;;5072507;28;20639;-66
2021/11/03 09:29:07;;;;;;;15.53;13.30;;;7.70;99.90;;;;;;5071227;28;20646;-65
2021/11/03 09:31:33;;;;;;;14.70;12.00;;;7.80;99.90;;;;;;5072054;28;20198;-65
2021/11/03 09:33:59;;;;;;;13.67;12.27;;;7.90;99.90;;;;;;5091499;28;20162;-65
2021/11/03 09:36:26;;;;;;;19.87;14.57;;;8.00;99.90;;;;;;5091728;28;20199;-66
2021/11/03 09:38:53;;;;;;;18.70;13.63;;;8.10;99.90;;;;;;5088811;28;20226;-65
2021/11/03 09:41:30;;;;;;;16.10;12.40;;;8.10;99.90;;;;;;5089953;28;20177;-66
2021/11/03 09:44:09;;;;;;;13.17;11.97;;;8.10;99.90;;;;;;5071568;28;20240;-66
2021/11/03 09:46:42;;;;;;;19.70;13.57;;;8.20;99.90;;;;;;5071135;28;20631;-65
2021/11/03 09:49:16;;;;;;;15.07;13.10;;;8.20;99.90;;;;;;5050972;28;20178;-66
2021/11/03 09:51:46;;;;;;;14.17;12.13;;;8.30;99.90;;;;;;5051879;28;20720;-66
2021/11/03 09:54:19;;;;;;;12.67;11.27;;;8.30;99.90;;;;;;5051007;28;20599;-66
2021/11/03 09:56:52;;;;;;;14.00;11.57;;;8.30;99.90;;;;;;5086628;28;20166;-66
2021/11/03 09:59:23;;;;;;;13.13;11.40;;;8.20;99.90;;;;;;5077605;28;20205;-66
2021/11/03 10:02:17;;;;;;;12.20;10.97;;;8.10;99.90;;;;;;5069898;28;20182;-66
2021/11/03 10:04:57;;;;;;;13.70;11.67;;;8.00;99.90;;;;;;5087117;28;20187;-66
2021/11/03 10:07:49;;;;;;;13.33;11.87;;;8.00;99.90;;;;;;5091307;28;20181;-66
2021/11/03 10:10:28;;;;;;;21.00;16.07;;;8.00;99.90;;;;;;5090767;28;20294;-66
2021/11/03 10:12:54;;;;;;;32.30;23.67;;;7.90;99.90;;;;;;5089334;28;20209;-66
2021/11/03 10:15:23;;;;;;;24.23;17.83;;;7.90;99.90;;;;;;5071625;28;20255;-66
2021/11/03 10:18:08;;;;;;;34.47;22.53;;;7.90;99.90;;;;;;5083032;28;20252;-66
2021/11/03 10:20:40;;;;;;;18.53;13.03;;;7.90;99.90;;;;;;5092849;28;20197;-66
2021/11/03 10:23:24;;;;;;;14.30;12.53;;;8.00;99.90;;;;;;5093915;28;20650;-66
2021/11/03 10:26:16;;;;;;;18.57;13.70;;;8.10;99.90;;;;;;5092802;28;20185;-66
2021/11/03 10:28:49;;;;;;;15.23;13.67;;;8.20;99.90;;;;;;5090963;28;20218;-66
2021/11/03 10:31:23;;;;;;;13.20;11.80;;;8.20;99.90;;;;;;5094229;28;20804;-66
2021/11/03 10:33:57;;;;;;;14.60;13.17;;;8.10;99.90;;;;;;5094684;28;20173;-66
2021/11/03 10:36:24;;;;;;;20.23;15.10;;;8.10;99.90;;;;;;5088488;28;20247;-66
2021/11/03 10:39:01;;;;;;;19.40;15.00;;;8.10;99.90;;;;;;5074362;28;20639;-66
2021/11/03 10:41:33;;;;;;;18.13;13.20;;;8.20;99.90;;;;;;5074431;28;20177;-66
2021/11/03 10:44:01;;;;;;;16.87;13.10;;;8.20;99.90;;;;;;5074094;28;20182;-65
2021/11/03 10:46:41;;;;;;;13.83;12.40;;;8.30;99.90;;;;;;5079381;28;20180;-66
2021/11/03 10:49:24;;;;;;;16.03;13.03;;;8.40;99.90;;;;;;5091592;28;20240;-65
2021/11/03 10:52:13;;;;;;;15.13;13.17;;;8.50;99.90;;;;;;5073957;28;20303;-66
2021/11/03 10:54:49;;;;;;;19.33;12.33;;;8.60;99.90;;;;;;5080145;28;20180;-66
2021/11/03 10:57:46;;;;;;;13.90;11.30;;;8.70;99.90;;;;;;5094128;28;20166;-66
2021/11/03 11:00:24;;;;;;;14.30;11.70;;;8.70;99.90;;;;;;5083260;28;20197;-66
2021/11/03 11:03:00;;;;;;;14.87;11.97;;;8.60;99.90;;;;;;5073738;28;20177;-66
2021/11/03 11:05:29;;;;;;;15.90;12.23;;;8.50;99.90;;;;;;5085501;28;20212;-66
2021/11/03 11:08:00;;;;;;;18.10;12.20;;;8.40;99.90;;;;;;5073902;28;20270;-66
2021/11/03 11:10:32;;;;;;;14.87;13.43;;;8.30;99.90;;;;;;5084897;28;20224;-66
2021/11/03 11:12:59;;;;;;;13.73;12.33;;;8.20;99.90;;;;;;5093997;28;20246;-66
2021/11/03 11:15:41;;;;;;;14.30;12.80;;;8.30;99.90;;;;;;5082796;28;20224;-66
2021/11/03 11:18:17;;;;;;;15.40;12.07;;;8.30;99.90;;;;;;5072234;28;20193;-66
2021/11/03 11:20:48;;;;;;;15.27;12.03;;;8.40;99.90;;;;;;5085091;28;20212;-66
2021/11/03 11:23:27;;;;;;;13.53;11.03;;;8.40;99.90;;;;;;5093894;28;20173;-66
2021/11/03 11:26:11;;;;;;;13.33;11.90;;;8.50;99.90;;;;;;5078600;28;20181;-66
2021/11/03 11:29:10;;;;;;;13.53;12.13;;;8.50;99.90;;;;;;5072906;28;20197;-66
2021/11/03 11:31:45;;;;;;;12.53;11.03;;;8.40;99.90;;;;;;5091215;28;20299;-66
2021/11/03 11:34:30;;;;;;;12.57;11.23;;;8.50;99.90;;;;;;5093400;28;20653;-66
2021/11/03 11:37:34;;;;;;;16.27;11.97;;;8.50;99.90;;;;;;5076008;28;20669;-66
2021/11/03 11:40:37;;;;;;;12.97;10.97;;;8.40;99.90;;;;;;5072775;28;20194;-66
2021/11/03 11:43:18;;;;;;;14.17;11.90;;;8.40;99.90;;;;;;5073246;28;20663;-66
2021/11/03 11:45:44;;;;;;;17.63;15.40;;;8.50;99.90;;;;;;5073015;28;20166;-66
2021/11/03 11:48:38;;;;;;;13.00;11.60;;;8.50;99.90;;;;;;5073298;28;20185;-66
2021/11/03 11:51:13;;;;;;;15.07;12.00;;;8.60;99.90;;;;;;5072501;28;20218;-66
2021/11/03 11:53:40;;;;;;;13.27;11.97;;;8.60;99.90;;;;;;5072775;28;20184;-66
2021/11/03 11:56:08;;;;;;;14.97;11.47;;;8.60;99.90;;;;;;5072772;28;20178;-66
2021/11/03 11:58:47;;;;;;;19.00;11.80;;;8.70;99.90;;;;;;5087456;28;20555;-66
2021/11/03 12:01:16;;;;;;;14.77;11.73;;;8.70;99.90;;;;;;5072519;28;20194;-66
2021/11/03 12:03:51;;;;;;;14.97;12.30;;;8.70;99.90;;;;;;5090917;28;20634;-66
2021/11/03 12:06:17;;;;;;;18.57;12.80;;;8.60;99.90;;;;;;5092928;28;20218;-66
2021/11/03 12:08:56;;;;;;;14.10;12.40;;;8.60;99.90;;;;;;5090823;28;20165;-66
2021/11/03 12:11:45;;;;;;;15.47;12.83;;;8.50;99.90;;;;;;5091962;28;20193;-66
2021/11/03 12:14:43;;;;;;;15.67;13.00;;;8.50;99.90;;;;;;5092639;28;20166;-66
2021/11/03 12:17:08;;;;;;;19.07;12.87;;;8.50;99.90;;;;;;5078111;28;20257;-66
2021/11/03 12:19:37;;;;;;;13.20;11.87;;;8.40;99.90;;;;;;5072151;28;20265;-66
2021/11/03 12:22:19;;;;;;;18.57;13.73;;;8.40;99.90;;;;;;5085008;28;20188;-66
2021/11/03 12:24:46;;;;;;;17.10;13.80;;;8.50;99.90;;;;;;5092578;28;20165;-66
2021/11/03 12:27:29;;;;;;;19.40;16.20;;;8.40;99.90;;;;;;5077247;28;20227;-66
2021/11/03 12:30:15;;;;;;;16.40;13.73;;;8.50;99.90;;;;;;5071708;28;20193;-66
2021/11/03 12:32:40;;;;;;;15.87;13.77;;;8.50;99.90;;;;;;5089035;28;20608;-66
2021/11/03 12:35:18;;;;;;;19.30;13.33;;;8.50;99.90;;;;;;5092291;28;20170;-66
2021/11/03 12:38:22;;;;;;;17.37;12.53;;;8.50;99.90;;;;;;5091006;28;20177;-66
2021/11/03 12:40:50;;;;;;;15.70;12.80;;;8.50;99.90;;;;;;4991943;28;20223;-66
2021/11/03 12:43:28;;;;;;;16.87;13.27;;;8.50;99.90;;;;;;5041493;28;20183;-66
2021/11/03 12:46:09;;;;;;;16.97;13.67;;;8.50;99.90;;;;;;5088193;28;20181;-66
2021/11/03 12:48:43;;;;;;;16.83;12.70;;;8.50;99.90;;;;;;5092142;28;20193;-66
2021/11/03 12:51:22;;;;;;;20.50;14.47;;;8.50;99.90;;;;;;5071555;28;20618;-66
2021/11/03 12:54:01;;;;;;;15.63;13.37;;;8.50;99.90;;;;;;5071757;28;20256;-65
2021/11/03 12:56:34;;;;;;;17.27;13.37;;;8.50;99.90;;;;;;5051712;28;20582;-65
2021/11/03 12:59:04;;;;;;;14.07;12.60;;;8.50;99.90;;;;;;5052808;28;20240;-66